Time;durP1;ratioP1;P1;durP2;ratioP2;P2;SDS_P1;SDS_P2;PMS_P1;PMS_P2;Temp;Humidity;BMP_temperature;BMP_pressure;BME280_temperature;BME280_humidity;BME280_pressure;Samples;Min_cycle;Max_cycle;Signal;HPM_P1;HPM_P2
2023/08/15 00:00:39;;;;;;;11.97;10.97;;;;;;;;;;5063235;28;20485;-81
2023/08/15 00:03:06;;;;;;;11.10;10.00;;;;;;;;;;5064447;28;20499;-81
2023/08/15 00:05:34;;;;;;;11.57;10.53;;;;;;;;;;5063614;28;20456;-82
2023/08/15 00:08:02;;;;;;;26.27;21.60;;;;;;;;;;5063805;28;20464;-81
2023/08/15 00:10:29;;;;;;;16.70;12.90;;;;;;;;;;5063882;28;20423;-81
2023/08/15 00:12:56;;;;;;;13.60;10.47;;;;;;;;;;5064807;28;20461;-81
2023/08/15 00:15:23;;;;;;;12.53;11.27;;;;;;;;;;5063292;28;20445;-82
2023/08/15 00:17:50;;;;;;;13.60;10.77;;;;;;;;;;5062538;28;20453;-81
2023/08/15 00:20:18;;;;;;;12.10;10.67;;;;;;;;;;5064243;28;20583;-81
2023/08/15 00:22:46;;;;;;;12.73;11.47;;;;;;;;;;5063329;28;20512;-81
2023/08/15 00:25:13;;;;;;;12.23;11.00;;;;;;;;;;5063377;28;20437;-81
2023/08/15 00:27:40;;;;;;;11.00;10.00;;;;;;;;;;5063471;28;20540;-81
2023/08/15 00:30:08;;;;;;;13.60;10.73;;;;;;;;;;5063775;28;20849;-81
2023/08/15 00:32:36;;;;;;;11.70;10.37;;;;;;;;;;5063458;28;20878;-81
2023/08/15 00:35:04;;;;;;;11.37;10.23;;;;;;;;;;5063583;28;20857;-82
2023/08/15 00:37:31;;;;;;;12.53;11.37;;;;;;;;;;5063012;28;20479;-81
2023/08/15 00:39:59;;;;;;;11.13;10.03;;;;;;;;;;5063405;28;20496;-81
2023/08/15 00:42:26;;;;;;;12.40;11.23;;;;;;;;;;5063286;28;20562;-81
2023/08/15 00:44:53;;;;;;;11.17;10.07;;;;;;;;;;5063632;28;20532;-81
2023/08/15 00:47:21;;;;;;;11.87;10.50;;;;;;;;;;5063482;28;20449;-81
2023/08/15 00:49:48;;;;;;;12.10;11.00;;;;;;;;;;5064278;28;20476;-81
2023/08/15 00:52:16;;;;;;;13.40;10.80;;;;;;;;;;5064355;28;20469;-82
2023/08/15 00:54:44;;;;;;;11.07;10.03;;;;;;;;;;5064218;28;20471;-80
2023/08/15 00:57:13;;;;;;;11.83;10.83;;;;;;;;;;5063657;28;20448;-79
2023/08/15 00:59:42;;;;;;;12.23;11.13;;;;;;;;;;5062928;28;20488;-81
2023/08/15 01:02:09;;;;;;;12.40;11.20;;;;;;;;;;5062862;28;20477;-80
2023/08/15 01:04:37;;;;;;;12.07;10.97;;;;;;;;;;5062863;28;20823;-80
2023/08/15 01:07:04;;;;;;;11.10;10.20;;;;;;;;;;5062472;28;20465;-82
2023/08/15 01:09:31;;;;;;;12.60;10.80;;;;;;;;;;5063212;28;20480;-82
2023/08/15 01:12:03;;;;;;;14.43;11.40;;;;;;;;;;5063335;28;20478;-80
2023/08/15 01:14:38;;;;;;;11.97;10.97;;;;;;;;;;5062773;28;20825;-80
2023/08/15 01:17:06;;;;;;;11.80;10.60;;;;;;;;;;5063881;28;20937;-80
2023/08/15 01:19:38;;;;;;;11.37;10.40;;;;;;;;;;5063035;28;20869;-81
2023/08/15 01:22:09;;;;;;;11.57;10.57;;;;;;;;;;5062706;28;20534;-81
2023/08/15 01:24:37;;;;;;;11.83;10.93;;;;;;;;;;5062254;28;20457;-80
2023/08/15 01:27:05;;;;;;;15.20;11.83;;;;;;;;;;5061740;28;20925;-80
2023/08/15 01:29:32;;;;;;;12.67;11.27;;;;;;;;;;5061769;28;20830;-80
2023/08/15 01:32:03;;;;;;;12.70;11.33;;;;;;;;;;5061050;28;20538;-82
2023/08/15 01:34:34;;;;;;;12.60;11.50;;;;;;;;;;5061615;28;20488;-79
2023/08/15 01:37:04;;;;;;;20.43;11.63;;;;;;;;;;5060531;28;20456;-80
2023/08/15 01:39:32;;;;;;;12.83;11.57;;;;;;;;;;5060172;28;20531;-80
2023/08/15 01:42:02;;;;;;;10.70;9.70;;;;;;;;;;5059972;28;20472;-80
2023/08/15 01:44:31;;;;;;;13.27;12.07;;;;;;;;;;5060047;28;20504;-80
2023/08/15 01:46:58;;;;;;;11.63;10.43;;;;;;;;;;5059643;28;20444;-79
2023/08/15 01:49:25;;;;;;;11.90;10.87;;;;;;;;;;5060226;28;20449;-81
2023/08/15 01:51:54;;;;;;;13.57;12.13;;;;;;;;;;5058528;28;20477;-82
2023/08/15 01:54:21;;;;;;;12.67;10.50;;;;;;;;;;5059981;28;20448;-82
2023/08/15 01:56:48;;;;;;;11.77;10.77;;;;;;;;;;5058708;28;20452;-82
2023/08/15 01:59:17;;;;;;;14.27;11.60;;;;;;;;;;5060730;28;20452;-80
2023/08/15 02:01:44;;;;;;;13.03;11.83;;;;;;;;;;5061151;28;20520;-80
2023/08/15 02:04:12;;;;;;;13.33;11.60;;;;;;;;;;5061079;28;20476;-80
2023/08/15 02:06:39;;;;;;;13.97;12.20;;;;;;;;;;5059844;28;20455;-80
2023/08/15 02:09:06;;;;;;;12.37;11.00;;;;;;;;;;5061517;28;20460;-80
2023/08/15 02:11:34;;;;;;;16.90;11.50;;;;;;;;;;5060726;28;20536;-80
2023/08/15 02:14:01;;;;;;;14.87;12.00;;;;;;;;;;5060217;28;20962;-80
2023/08/15 02:16:29;;;;;;;12.00;10.73;;;;;;;;;;5059930;28;20532;-80
2023/08/15 02:18:56;;;;;;;13.40;12.23;;;;;;;;;;5059751;28;20469;-80
2023/08/15 02:21:23;;;;;;;14.23;11.00;;;;;;;;;;5059827;28;20481;-80
2023/08/15 02:23:51;;;;;;;11.83;10.63;;;;;;;;;;5065609;28;20441;-80
2023/08/15 02:26:18;;;;;;;11.90;10.70;;;;;;;;;;5067103;28;20463;-80
2023/08/15 02:28:45;;;;;;;12.10;11.00;;;;;;;;;;5067730;28;20449;-82
2023/08/15 02:31:12;;;;;;;10.80;9.90;;;;;;;;;;5067423;28;20444;-80
2023/08/15 02:33:41;;;;;;;12.23;11.20;;;;;;;;;;5066307;28;20990;-81
2023/08/15 02:36:08;;;;;;;13.37;12.07;;;;;;;;;;5067016;28;20448;-80
2023/08/15 02:38:35;;;;;;;13.83;12.43;;;;;;;;;;5066670;28;20480;-80
2023/08/15 02:41:03;;;;;;;13.30;12.00;;;;;;;;;;5067235;28;20555;-80
2023/08/15 02:43:30;;;;;;;13.90;11.90;;;;;;;;;;5067118;28;20476;-81
2023/08/15 02:45:57;;;;;;;14.67;13.37;;;;;;;;;;5068115;28;20455;-79
2023/08/15 02:48:24;;;;;;;14.20;11.50;;;;;;;;;;5066803;28;20479;-81
2023/08/15 02:50:53;;;;;;;13.47;11.93;;;;;;;;;;5066589;28;20453;-80
2023/08/15 02:53:20;;;;;;;13.37;12.03;;;;;;;;;;5067526;28;20456;-81
2023/08/15 02:55:50;;;;;;;14.87;13.40;;;;;;;;;;5067292;28;20532;-81
2023/08/15 02:58:17;;;;;;;14.80;13.20;;;;;;;;;;5067622;28;20436;-79
2023/08/15 03:00:45;;;;;;;13.33;12.00;;;;;;;;;;5067517;28;20583;-81
2023/08/15 03:03:12;;;;;;;12.50;11.47;;;;;;;;;;5067531;28;20480;-80
2023/08/15 03:05:39;;;;;;;12.40;11.17;;;;;;;;;;5066750;28;20487;-80
2023/08/15 03:08:08;;;;;;;14.20;12.00;;;;;;;;;;5065965;28;20452;-81
2023/08/15 03:10:36;;;;;;;13.77;12.37;;;;;;;;;;5066017;28;20480;-80
2023/08/15 03:13:03;;;;;;;14.40;11.13;;;;;;;;;;5066510;28;20476;-80
2023/08/15 03:15:31;;;;;;;15.87;12.83;;;;;;;;;;5066550;28;20949;-79
2023/08/15 03:17:58;;;;;;;16.03;14.03;;;;;;;;;;5065536;28;20462;-80
2023/08/15 03:20:25;;;;;;;14.23;13.03;;;;;;;;;;5066829;28;20480;-80
2023/08/15 03:22:52;;;;;;;15.43;13.90;;;;;;;;;;5066326;28;20961;-81
2023/08/15 03:25:21;;;;;;;12.83;11.80;;;;;;;;;;5065856;28;20455;-79
2023/08/15 03:27:48;;;;;;;12.40;11.10;;;;;;;;;;5066581;28;20455;-80
2023/08/15 03:30:16;;;;;;;13.70;12.37;;;;;;;;;;5066685;28;20495;-81
2023/08/15 03:32:43;;;;;;;14.83;13.33;;;;;;;;;;5066884;28;20921;-80
2023/08/15 03:35:10;;;;;;;14.10;12.70;;;;;;;;;;5063789;28;20440;-79
2023/08/15 03:37:37;;;;;;;14.63;13.27;;;;;;;;;;5063381;28;20460;-82
2023/08/15 03:40:05;;;;;;;15.43;14.10;;;;;;;;;;5064117;28;20444;-80
2023/08/15 03:42:33;;;;;;;14.73;13.50;;;;;;;;;;5064462;28;20479;-80
2023/08/15 03:45:00;;;;;;;15.40;13.90;;;;;;;;;;5064244;28;20535;-80
2023/08/15 03:47:27;;;;;;;14.30;12.80;;;;;;;;;;5064111;28;20461;-81
2023/08/15 03:49:55;;;;;;;15.10;13.70;;;;;;;;;;5063656;28;20453;-81
2023/08/15 03:52:22;;;;;;;20.40;12.40;;;;;;;;;;5064481;28;20853;-82
2023/08/15 03:54:49;;;;;;;14.07;12.47;;;;;;;;;;5064572;28;20464;-80
2023/08/15 03:57:16;;;;;;;14.50;13.10;;;;;;;;;;5064175;28;20460;-82
2023/08/15 03:59:45;;;;;;;15.13;13.70;;;;;;;;;;5062987;28;20453;-82
2023/08/15 04:02:12;;;;;;;17.00;13.80;;;;;;;;;;5063425;28;20488;-82
2023/08/15 04:04:39;;;;;;;17.10;14.10;;;;;;;;;;5062752;28;20551;-82
2023/08/15 04:07:06;;;;;;;15.57;14.07;;;;;;;;;;5062699;28;20440;-82
2023/08/15 04:09:33;;;;;;;17.50;15.87;;;;;;;;;;5062656;28;20465;-81
2023/08/15 04:12:00;;;;;;;18.53;16.60;;;;;;;;;;5061371;28;20477;-81
2023/08/15 04:14:27;;;;;;;17.90;16.07;;;;;;;;;;5061784;28;20453;-81
2023/08/15 04:16:56;;;;;;;16.40;14.90;;;;;;;;;;5060774;28;20464;-81
2023/08/15 04:19:23;;;;;;;15.80;14.50;;;;;;;;;;5060735;28;20453;-81
2023/08/15 04:21:50;;;;;;;15.47;13.90;;;;;;;;;;5060715;28;20500;-81
2023/08/15 04:24:19;;;;;;;15.43;13.80;;;;;;;;;;5061801;28;20945;-81
2023/08/15 04:26:46;;;;;;;15.30;13.80;;;;;;;;;;5061667;28;20821;-80
2023/08/15 04:29:13;;;;;;;15.23;13.93;;;;;;;;;;5060821;28;20445;-81
2023/08/15 04:31:41;;;;;;;15.00;13.60;;;;;;;;;;5060273;28;20473;-81
2023/08/15 04:34:09;;;;;;;15.03;13.67;;;;;;;;;;5059731;28;20524;-81
2023/08/15 04:36:37;;;;;;;17.50;15.70;;;;;;;;;;5059713;28;20460;-81
2023/08/15 04:39:04;;;;;;;15.60;13.90;;;;;;;;;;5059927;28;20552;-81
2023/08/15 04:41:31;;;;;;;15.93;14.53;;;;;;;;;;5059956;28;20499;-82
2023/08/15 04:43:58;;;;;;;13.73;12.40;;;;;;;;;;5060230;28;20805;-81
2023/08/15 04:46:25;;;;;;;12.70;11.57;;;;;;;;;;5059062;28;20469;-81
2023/08/15 04:48:52;;;;;;;11.53;10.63;;;;;;;;;;5059780;28;20463;-82
2023/08/15 04:51:21;;;;;;;11.30;10.30;;;;;;;;;;5059122;28;20437;-82
2023/08/15 04:53:48;;;;;;;11.53;10.47;;;;;;;;;;5059414;28;20459;-81
2023/08/15 04:56:15;;;;;;;10.80;9.90;;;;;;;;;;5059014;28;20484;-81
2023/08/15 04:58:42;;;;;;;10.40;9.33;;;;;;;;;;5059474;28;20463;-81
2023/08/15 05:01:10;;;;;;;11.03;10.07;;;;;;;;;;5059372;28;20492;-81
2023/08/15 05:03:37;;;;;;;10.77;9.80;;;;;;;;;;5059818;28;20460;-81
2023/08/15 05:06:04;;;;;;;10.13;8.50;;;;;;;;;;5058473;28;20464;-81
2023/08/15 05:08:32;;;;;;;11.40;8.30;;;;;;;;;;5058897;28;20796;-81
2023/08/15 05:11:00;;;;;;;8.53;7.73;;;;;;;;;;5059614;28;20464;-81
2023/08/15 05:13:27;;;;;;;8.87;8.07;;;;;;;;;;5059189;28;20480;-82
2023/08/15 05:15:54;;;;;;;8.70;8.10;;;;;;;;;;5059301;28;20544;-82
2023/08/15 05:18:21;;;;;;;9.00;8.10;;;;;;;;;;5058917;28;20461;-81
2023/08/15 05:20:49;;;;;;;8.87;7.90;;;;;;;;;;5059373;28;20507;-81
2023/08/15 05:23:16;;;;;;;8.53;7.77;;;;;;;;;;5058096;28;20480;-82
2023/08/15 05:25:45;;;;;;;7.87;7.17;;;;;;;;;;5058247;28;20451;-82
2023/08/15 05:28:12;;;;;;;7.13;6.20;;;;;;;;;;5057632;28;20771;-81
2023/08/15 05:30:39;;;;;;;7.27;6.57;;;;;;;;;;5059162;28;20459;-82
2023/08/15 05:33:06;;;;;;;7.23;6.73;;;;;;;;;;5057810;28;20484;-82
2023/08/15 05:35:34;;;;;;;8.10;7.33;;;;;;;;;;5057880;28;20478;-81
2023/08/15 05:38:01;;;;;;;7.50;6.90;;;;;;;;;;5056949;28;20574;-82
2023/08/15 05:40:29;;;;;;;8.23;7.43;;;;;;;;;;5057851;28;20468;-82
2023/08/15 05:42:58;;;;;;;8.70;7.87;;;;;;;;;;5057861;28;20500;-82
2023/08/15 05:45:25;;;;;;;7.63;6.93;;;;;;;;;;5057204;28;20531;-82
2023/08/15 05:47:52;;;;;;;7.83;7.13;;;;;;;;;;5057458;28;20953;-81
2023/08/15 05:50:19;;;;;;;9.43;7.60;;;;;;;;;;5058023;28;20449;-81
2023/08/15 05:52:47;;;;;;;8.90;8.10;;;;;;;;;;5057235;28;20957;-82
2023/08/15 05:55:14;;;;;;;9.40;7.93;;;;;;;;;;5057910;28;20471;-81
2023/08/15 05:57:41;;;;;;;8.60;7.77;;;;;;;;;;5057777;28;20455;-81
2023/08/15 06:00:10;;;;;;;8.63;7.77;;;;;;;;;;5058066;28;20464;-82
2023/08/15 06:02:38;;;;;;;8.43;7.63;;;;;;;;;;5057149;28;21034;-82
2023/08/15 06:05:06;;;;;;;9.87;6.00;;;;;;;;;;5057241;28;20832;-82
2023/08/15 06:07:34;;;;;;;6.73;6.20;;;;;;;;;;5056228;28;20460;-82
2023/08/15 06:10:01;;;;;;;6.67;6.10;;;;;;;;;;5057741;28;20456;-81
2023/08/15 06:12:28;;;;;;;6.53;6.03;;;;;;;;;;5057293;28;20456;-82
2023/08/15 06:14:55;;;;;;;6.20;5.60;;;;;;;;;;5057403;28;20460;-80
2023/08/15 06:17:23;;;;;;;6.77;5.67;;;;;;;;;;5056471;28;20452;-82
2023/08/15 06:19:50;;;;;;;6.67;5.97;;;;;;;;;;5056991;28;20444;-80
2023/08/15 06:22:18;;;;;;;8.50;6.10;;;;;;;;;;5056609;28;20492;-79
2023/08/15 06:24:45;;;;;;;6.17;5.67;;;;;;;;;;5057289;28;20215;-82
2023/08/15 06:27:12;;;;;;;7.03;6.43;;;;;;;;;;5056387;28;20440;-82
2023/08/15 06:29:39;;;;;;;7.30;6.80;;;;;;;;;;5056605;28;20452;-82
2023/08/15 06:32:07;;;;;;;7.43;6.47;;;;;;;;;;5056505;28;20480;-82
2023/08/15 06:34:36;;;;;;;9.40;7.47;;;;;;;;;;5055778;28;20536;-81
2023/08/15 06:37:04;;;;;;;7.60;7.10;;;;;;;;;;5056559;28;20456;-82
2023/08/15 06:39:31;;;;;;;8.90;7.53;;;;;;;;;;5056931;28;20511;-81
2023/08/15 06:41:58;;;;;;;7.40;6.90;;;;;;;;;;5056478;28;20474;-81
2023/08/15 06:44:25;;;;;;;8.00;7.30;;;;;;;;;;5056504;28;20504;-81
2023/08/15 06:46:52;;;;;;;6.97;6.47;;;;;;;;;;5056453;28;20449;-80
2023/08/15 06:49:20;;;;;;;8.10;7.40;;;;;;;;;;5055638;28;20444;-82
2023/08/15 06:51:48;;;;;;;7.33;5.73;;;;;;;;;;5056278;28;20571;-82
2023/08/15 06:54:15;;;;;;;7.17;6.50;;;;;;;;;;5056059;28;20833;-82
2023/08/15 06:56:42;;;;;;;7.13;6.53;;;;;;;;;;5056248;28;20451;-81
2023/08/15 06:59:09;;;;;;;10.23;6.93;;;;;;;;;;5056576;28;20458;-80
2023/08/15 07:01:36;;;;;;;6.90;6.40;;;;;;;;;;5057334;28;20499;-83
2023/08/15 07:04:04;;;;;;;6.00;5.60;;;;;;;;;;5057286;28;20801;-84
2023/08/15 07:06:32;;;;;;;6.13;5.70;;;;;;;;;;5056441;28;20500;-83
2023/08/15 07:09:00;;;;;;;9.03;5.77;;;;;;;;;;5057944;28;20908;-82
2023/08/15 07:11:26;;;;;;;6.00;5.50;;;;;;;;;;5060199;28;20205;-83
2023/08/15 07:13:53;;;;;;;6.43;5.90;;;;;;;;;;5060740;28;20264;-82
2023/08/15 07:16:23;;;;;;;5.80;5.30;;;;;;;;;;5059818;28;20226;-82
2023/08/15 07:18:50;;;;;;;6.43;5.93;;;;;;;;;;5059605;28;20210;-82
2023/08/15 07:21:17;;;;;;;6.10;5.60;;;;;;;;;;5059382;28;20214;-81
2023/08/15 07:23:45;;;;;;;5.10;4.65;;;;;;;;;;5058587;28;20714;-83
2023/08/15 07:26:14;;;;;;;6.28;5.88;;;;;;;;;;5057942;28;20211;-84
2023/08/15 07:28:41;;;;;;;5.00;4.70;;;;;;;;;;5058231;28;20581;-84
2023/08/15 07:31:08;;;;;;;7.45;5.72;;;;;;;;;;5058335;28;20222;-82
2023/08/15 07:33:35;;;;;;;7.30;5.13;;;;;;;;;;5058692;28;20222;-83
2023/08/15 07:36:02;;;;;;;6.50;6.00;;;;;;;;;;5058356;28;20204;-84
2023/08/15 07:38:30;;;;;;;6.50;5.72;;;;;;;;;;5058454;28;20529;-83
2023/08/15 07:40:57;;;;;;;6.50;5.95;;;;;;;;;;5058884;28;20204;-81
2023/08/15 07:43:25;;;;;;;6.38;5.80;;;;;;;;;;5059358;28;20245;-82
2023/08/15 07:45:53;;;;;;;6.13;5.63;;;;;;;;;;5059430;28;20664;-82
2023/08/15 07:48:20;;;;;;;8.50;6.22;;;;;;;;;;5058453;28;20209;-82
2023/08/15 07:50:47;;;;;;;9.35;6.10;;;;;;;;;;5059806;28;20205;-83
2023/08/15 07:53:14;;;;;;;6.10;5.70;;;;;;;;;;5059229;28;20222;-81
2023/08/15 07:55:41;;;;;;;5.80;5.40;;;;;;;;;;5059541;28;20278;-82
2023/08/15 07:58:08;;;;;;;7.63;5.50;;;;;;;;;;5058782;28;20240;-83
2023/08/15 08:00:37;;;;;;;6.60;5.93;;;;;;;;;;5058867;28;20225;-83
2023/08/15 08:03:04;;;;;;;6.60;6.20;;;;;;;;;;5058232;28;20225;-83
2023/08/15 08:05:32;;;;;;;7.33;6.70;;;;;;;;;;5058815;28;20213;-82
2023/08/15 08:07:59;;;;;;;5.83;5.20;;;;;;;;;;5058585;28;20219;-80
2023/08/15 08:10:27;;;;;;;6.40;5.80;;;;;;;;;;5058000;28;20478;-83
2023/08/15 08:12:54;;;;;;;5.83;5.30;;;;;;;;;;5058904;28;20468;-84
2023/08/15 08:15:23;;;;;;;5.40;5.00;;;;;;;;;;5059005;28;20460;-82
2023/08/15 08:17:51;;;;;;;6.50;5.70;;;;;;;;;;5059051;28;20472;-83
2023/08/15 08:20:20;;;;;;;6.20;5.67;;;;;;;;;;5058002;28;20535;-83
2023/08/15 08:22:48;;;;;;;8.73;5.73;;;;;;;;;;5058459;28;20990;-84
2023/08/15 08:25:16;;;;;;;6.43;5.93;;;;;;;;;;5059163;28;20452;-83
2023/08/15 08:27:43;;;;;;;9.17;5.33;;;;;;;;;;5062512;28;20488;-82
2023/08/15 08:30:11;;;;;;;6.03;5.57;;;;;;;;;;5061178;28;20456;-82
2023/08/15 08:32:38;;;;;;;6.40;5.80;;;;;;;;;;5060891;28;20849;-82
2023/08/15 08:35:08;;;;;;;7.33;6.80;;;;;;;;;;5062157;28;20446;-81
2023/08/15 08:37:35;;;;;;;10.90;5.83;;;;;;;;;;5061573;28;20473;-81
2023/08/15 08:40:03;;;;;;;9.83;6.17;;;;;;;;;;5062822;28;20449;-82
2023/08/15 08:42:30;;;;;;;6.60;6.00;;;;;;;;;;5061430;28;20575;-82
2023/08/15 08:44:58;;;;;;;6.13;5.73;;;;;;;;;;5062245;28;20515;-82
2023/08/15 08:47:26;;;;;;;5.93;5.43;;;;;;;;;;5061676;28;20439;-82
2023/08/15 08:49:54;;;;;;;6.60;5.53;;;;;;;;;;5062173;28;20436;-82
2023/08/15 08:52:40;;;;;;;7.97;5.77;;;;;;;;;;5065549;22;20503;-80
2023/08/15 08:55:09;;;;;;;6.90;6.30;;;;;;;;;;5057402;28;20428;-81
2023/08/15 08:57:37;;;;;;;6.60;6.10;;;;;;;;;;5057593;28;20485;-80
2023/08/15 09:00:09;;;;;;;5.80;5.37;;;;;;;;;;5057528;28;20452;-80
2023/08/15 09:02:36;;;;;;;5.80;5.30;;;;;;;;;;5057343;28;20988;-81
2023/08/15 09:05:04;;;;;;;5.73;5.23;;;;;;;;;;5057895;28;20803;-80
2023/08/15 09:07:58;;;;;;;5.40;5.10;;;;;;;;;;5057142;28;20452;-81
2023/08/15 09:10:28;;;;;;;5.87;5.47;;;;;;;;;;5057404;28;20437;-80
2023/08/15 09:12:58;;;;;;;5.37;4.90;;;;;;;;;;5057460;28;20533;-81
2023/08/15 09:15:25;;;;;;;6.63;6.07;;;;;;;;;;5057073;28;20471;-80
2023/08/15 09:17:58;;;;;;;6.57;5.60;;;;;;;;;;5056994;28;20440;-79
2023/08/15 09:23:29;;;;;;;6.77;6.03;;;;;;;;;;5056935;28;20475;-81
2023/08/15 09:26:25;;;;;;;6.10;5.50;;;;;;;;;;5056758;28;20892;-80
2023/08/15 09:28:54;;;;;;;6.20;5.53;;;;;;;;;;5057237;28;20511;-81
2023/08/15 09:31:21;;;;;;;6.20;5.70;;;;;;;;;;5057077;28;20487;-81
2023/08/15 09:33:48;;;;;;;9.77;6.00;;;;;;;;;;5055680;28;20456;-81
2023/08/15 09:36:16;;;;;;;5.60;5.07;;;;;;;;;;5056828;28;20455;-80
2023/08/15 09:38:43;;;;;;;6.30;5.80;;;;;;;;;;5056609;28;20444;-81
2023/08/15 09:41:13;;;;;;;8.60;5.20;;;;;;;;;;5056621;28;20459;-81
2023/08/15 09:43:51;;;;;;;5.70;5.20;;;;;;;;;;5057040;28;20498;-80
2023/08/15 09:46:19;;;;;;;6.67;5.23;;;;;;;;;;5057069;28;20451;-80
2023/08/15 09:48:47;;;;;;;7.90;6.77;;;;;;;;;;5056148;28;20428;-81
2023/08/15 09:51:16;;;;;;;5.90;5.30;;;;;;;;;;5056149;28;20452;-80
2023/08/15 09:53:43;;;;;;;5.70;5.30;;;;;;;;;;5056043;28;20444;-81
2023/08/15 09:56:10;;;;;;;5.30;4.90;;;;;;;;;;5055909;28;20452;-80
2023/08/15 09:58:38;;;;;;;5.50;5.10;;;;;;;;;;5055569;28;20446;-80
2023/08/15 10:01:06;;;;;;;5.87;5.47;;;;;;;;;;5056632;28;20487;-80
2023/08/15 10:03:37;;;;;;;5.23;4.83;;;;;;;;;;5056004;28;20578;-81
2023/08/15 10:06:06;;;;;;;7.57;4.87;;;;;;;;;;5055833;28;20451;-82
2023/08/15 10:08:33;;;;;;;11.50;7.40;;;;;;;;;;5055873;28;20494;-81
2023/08/15 10:11:00;;;;;;;5.57;5.00;;;;;;;;;;5055678;28;20519;-82
2023/08/15 10:13:28;;;;;;;7.20;6.60;;;;;;;;;;5055669;28;20561;-82
2023/08/15 10:15:56;;;;;;;5.90;5.40;;;;;;;;;;5055133;28;20456;-81
2023/08/15 10:18:24;;;;;;;5.90;5.40;;;;;;;;;;5054960;28;20823;-81
2023/08/15 10:20:54;;;;;;;5.63;5.33;;;;;;;;;;5055512;28;20444;-81
2023/08/15 10:23:25;;;;;;;5.40;4.90;;;;;;;;;;5055428;28;20907;-82
2023/08/15 10:25:53;;;;;;;6.70;5.93;;;;;;;;;;5055607;28;20471;-80
2023/08/15 10:28:20;;;;;;;5.90;5.50;;;;;;;;;;5055583;28;20440;-80
2023/08/15 10:30:50;;;;;;;5.80;5.30;;;;;;;;;;5055943;28;20554;-80
2023/08/15 10:33:18;;;;;;;6.70;4.97;;;;;;;;;;5055362;28;20482;-81
2023/08/15 10:35:54;;;;;;;5.47;4.90;;;;;;;;;;5066618;22;20606;-82
2023/08/15 10:38:22;;;;;;;5.80;5.40;;;;;;;;;;5061321;28;20448;-81
2023/08/15 10:40:49;;;;;;;4.93;4.53;;;;;;;;;;5061716;28;20463;-81
2023/08/15 10:43:16;;;;;;;5.53;5.03;;;;;;;;;;5057544;28;20634;-81
2023/08/15 10:45:45;;;;;;;6.50;5.50;;;;;;;;;;5060640;28;20952;-81
2023/08/15 10:48:12;;;;;;;7.97;5.40;;;;;;;;;;5060381;28;20452;-81
2023/08/15 10:50:44;;;;;;;5.67;5.17;;;;;;;;;;5060363;28;20509;-82
2023/08/15 10:53:13;;;;;;;5.90;5.30;;;;;;;;;;5060299;28;20464;-81
2023/08/15 10:55:40;;;;;;;5.53;5.13;;;;;;;;;;5060699;28;20474;-81
2023/08/15 10:58:08;;;;;;;5.60;5.10;;;;;;;;;;5060105;28;20459;-82
2023/08/15 11:00:36;;;;;;;8.43;7.47;;;;;;;;;;5060367;28;20467;-81
2023/08/15 11:03:04;;;;;;;4.97;4.67;;;;;;;;;;5060838;28;20542;-82
2023/08/15 11:05:31;;;;;;;5.43;5.03;;;;;;;;;;5060057;28;20456;-79
2023/08/15 11:08:13;;;;;;;7.83;5.90;;;;;;;;;;5059622;28;20817;-81
2023/08/15 11:10:43;;;;;;;5.60;5.20;;;;;;;;;;5060671;28;20458;-81
2023/08/15 11:13:11;;;;;;;5.50;5.00;;;;;;;;;;5060077;28;20892;-82
2023/08/15 11:15:38;;;;;;;6.03;5.47;;;;;;;;;;5061040;28;20460;-81
2023/08/15 11:18:06;;;;;;;5.60;5.13;;;;;;;;;;5059844;28;20460;-81
2023/08/15 11:20:34;;;;;;;6.20;4.87;;;;;;;;;;5060341;28;20459;-82
2023/08/15 11:23:01;;;;;;;4.73;4.43;;;;;;;;;;5060327;28;20539;-81
2023/08/15 11:25:30;;;;;;;6.60;5.90;;;;;;;;;;5061173;28;20462;-81
2023/08/15 11:27:57;;;;;;;5.80;5.30;;;;;;;;;;5061615;28;20294;-81
2023/08/15 11:30:24;;;;;;;5.53;5.07;;;;;;;;;;5061647;28;20967;-82
2023/08/15 11:32:52;;;;;;;5.73;5.00;;;;;;;;;;5060418;28;20240;-81
2023/08/15 11:35:19;;;;;;;4.70;4.40;;;;;;;;;;5061318;28;20470;-82
2023/08/15 11:37:46;;;;;;;10.30;9.37;;;;;;;;;;5061571;28;20452;-80
2023/08/15 11:40:13;;;;;;;4.93;4.63;;;;;;;;;;5059985;28;20838;-82
2023/08/15 11:42:42;;;;;;;5.37;4.97;;;;;;;;;;5063408;28;20468;-86
2023/08/15 11:45:11;;;;;;;4.80;4.40;;;;;;;;;;5060133;28;20460;-87
2023/08/15 11:47:38;;;;;;;6.03;5.53;;;;;;;;;;5059357;28;20543;-87
2023/08/15 11:50:11;;;;;;;5.13;4.63;;;;;;;;;;5060194;28;20812;-86
2023/08/15 11:52:42;;;;;;;6.30;5.70;;;;;;;;;;5061036;28;20519;-86
2023/08/15 11:55:10;;;;;;;6.23;5.10;;;;;;;;;;5058645;28;20509;-85
2023/08/15 11:57:38;;;;;;;6.57;5.43;;;;;;;;;;5059243;28;20482;-85
2023/08/15 12:00:07;;;;;;;5.40;5.00;;;;;;;;;;5059425;28;20444;-84
2023/08/15 12:02:35;;;;;;;5.90;5.50;;;;;;;;;;5059233;28;20525;-84
2023/08/15 12:05:10;;;;;;;5.17;4.77;;;;;;;;;;5059277;28;20441;-85
2023/08/15 12:07:37;;;;;;;6.00;4.90;;;;;;;;;;5058662;28;20428;-85
2023/08/15 12:10:05;;;;;;;5.77;5.30;;;;;;;;;;5059686;28;20479;-84
2023/08/15 12:12:38;;;;;;;4.93;4.60;;;;;;;;;;5059495;28;20476;-85
2023/08/15 12:15:08;;;;;;;5.07;4.77;;;;;;;;;;5058899;28;20416;-85
2023/08/15 12:17:35;;;;;;;5.13;4.60;;;;;;;;;;5058696;28;20488;-86
2023/08/15 12:20:03;;;;;;;5.60;5.10;;;;;;;;;;5059074;28;20448;-85
2023/08/15 12:22:30;;;;;;;5.50;5.03;;;;;;;;;;5059476;28;20476;-84
2023/08/15 12:24:57;;;;;;;4.90;4.37;;;;;;;;;;5058680;28;21003;-85
2023/08/15 12:27:24;;;;;;;5.37;4.70;;;;;;;;;;5058672;28;20447;-83
2023/08/15 12:29:51;;;;;;;5.10;4.70;;;;;;;;;;5057224;28;20802;-85
2023/08/15 12:32:20;;;;;;;6.97;4.93;;;;;;;;;;5058491;28;20492;-83
2023/08/15 12:34:47;;;;;;;6.20;5.80;;;;;;;;;;5059156;28;20467;-84
2023/08/15 12:37:14;;;;;;;6.07;4.80;;;;;;;;;;5060434;28;20790;-82
2023/08/15 12:39:41;;;;;;;7.80;4.90;;;;;;;;;;5062849;28;20460;-81
2023/08/15 12:42:09;;;;;;;5.80;4.97;;;;;;;;;;5061657;28;20480;-82
2023/08/15 12:44:36;;;;;;;5.03;4.63;;;;;;;;;;5060175;28;20491;-82
2023/08/15 12:47:03;;;;;;;6.67;4.77;;;;;;;;;;5059011;28;20448;-81
2023/08/15 12:49:32;;;;;;;6.13;5.63;;;;;;;;;;5058289;28;20440;-81
2023/08/15 12:51:59;;;;;;;5.70;5.10;;;;;;;;;;5059290;28;20472;-82
2023/08/15 12:54:26;;;;;;;5.60;5.20;;;;;;;;;;5060009;28;20450;-81
2023/08/15 12:56:53;;;;;;;5.40;4.97;;;;;;;;;;5059491;28;20824;-81
2023/08/15 12:59:20;;;;;;;6.00;5.60;;;;;;;;;;5060624;28;20468;-81
2023/08/15 13:01:47;;;;;;;6.23;5.00;;;;;;;;;;5059987;28;20472;-81
2023/08/15 13:04:14;;;;;;;5.43;5.03;;;;;;;;;;5060331;28;20503;-81
2023/08/15 13:06:43;;;;;;;6.20;5.60;;;;;;;;;;5059711;28;20906;-81
2023/08/15 13:09:11;;;;;;;5.33;4.83;;;;;;;;;;5059770;28;20842;-82
2023/08/15 13:11:38;;;;;;;7.03;5.00;;;;;;;;;;5060780;28;20472;-82
2023/08/15 13:14:05;;;;;;;6.20;5.70;;;;;;;;;;5060604;28;21007;-82
2023/08/15 13:16:33;;;;;;;6.47;5.97;;;;;;;;;;5061379;28;20460;-81
2023/08/15 13:19:00;;;;;;;6.33;5.07;;;;;;;;;;5060415;28;20461;-82
2023/08/15 13:21:28;;;;;;;7.27;4.90;;;;;;;;;;5060292;28;20455;-81
2023/08/15 13:23:56;;;;;;;5.57;5.07;;;;;;;;;;5060986;28;20519;-81
2023/08/15 13:26:24;;;;;;;5.70;5.30;;;;;;;;;;5060941;28;20460;-81
2023/08/15 13:28:51;;;;;;;5.63;5.13;;;;;;;;;;5060218;28;20445;-81
2023/08/15 13:31:18;;;;;;;7.30;5.17;;;;;;;;;;5062440;28;20457;-81
2023/08/15 13:33:46;;;;;;;5.57;5.03;;;;;;;;;;5065039;28;20472;-81
2023/08/15 13:36:13;;;;;;;7.77;5.40;;;;;;;;;;5062236;28;20515;-80
2023/08/15 13:38:40;;;;;;;5.63;5.13;;;;;;;;;;5061567;28;20455;-82
2023/08/15 13:41:09;;;;;;;6.10;5.50;;;;;;;;;;5061904;28;20548;-80
2023/08/15 13:43:36;;;;;;;7.13;5.83;;;;;;;;;;5062020;28;20567;-81
2023/08/15 13:46:03;;;;;;;5.93;5.33;;;;;;;;;;5061702;28;20445;-81
2023/08/15 13:48:31;;;;;;;7.00;5.20;;;;;;;;;;5062176;28;20452;-81
2023/08/15 13:50:59;;;;;;;5.97;5.37;;;;;;;;;;5061245;28;20566;-81
2023/08/15 13:53:26;;;;;;;6.00;5.40;;;;;;;;;;5059876;28;20477;-81
2023/08/15 13:55:55;;;;;;;5.40;5.00;;;;;;;;;;5060977;28;20456;-81
2023/08/15 13:58:23;;;;;;;5.83;5.37;;;;;;;;;;5060308;28;20432;-82
2023/08/15 14:00:50;;;;;;;5.40;5.00;;;;;;;;;;5058826;28;20469;-81
2023/08/15 14:03:18;;;;;;;6.37;5.90;;;;;;;;;;5060596;28;20468;-81
2023/08/15 14:05:45;;;;;;;6.03;5.40;;;;;;;;;;5060854;28;20816;-81
2023/08/15 14:08:12;;;;;;;6.20;5.60;;;;;;;;;;5061151;28;20444;-81
2023/08/15 14:10:40;;;;;;;6.00;5.43;;;;;;;;;;5060699;28;20459;-82
2023/08/15 14:13:07;;;;;;;6.40;5.90;;;;;;;;;;5060816;28;20468;-81
2023/08/15 14:15:37;;;;;;;6.00;5.60;;;;;;;;;;5060952;28;20520;-81
2023/08/15 14:18:04;;;;;;;6.73;6.10;;;;;;;;;;5060788;28;20484;-81
2023/08/15 14:20:31;;;;;;;5.73;5.33;;;;;;;;;;5061357;28;20955;-81
2023/08/15 14:22:59;;;;;;;6.80;6.30;;;;;;;;;;5061245;28;20474;-81
2023/08/15 14:25:26;;;;;;;6.70;6.20;;;;;;;;;;5061889;28;20496;-81
2023/08/15 14:27:53;;;;;;;5.80;5.30;;;;;;;;;;5057360;28;20580;-82
2023/08/15 14:30:20;;;;;;;5.63;5.13;;;;;;;;;;5051758;28;20449;-81
2023/08/15 14:32:49;;;;;;;6.20;5.70;;;;;;;;;;5047092;28;20973;-80
2023/08/15 14:35:16;;;;;;;6.30;5.43;;;;;;;;;;5041215;28;20489;-82
2023/08/15 14:37:43;;;;;;;6.17;5.50;;;;;;;;;;5041495;28;20446;-81
2023/08/15 14:40:10;;;;;;;6.67;5.30;;;;;;;;;;5041697;28;20472;-81